Time;durP1;ratioP1;P1;durP2;ratioP2;P2;SDS_P1;SDS_P2;PMS_P1;PMS_P2;Temp;Humidity;BMP_temperature;BMP_pressure;BME280_temperature;BME280_humidity;BME280_pressure;Samples;Min_cycle;Max_cycle;Signal;HPM_P1;HPM_P2
2021/01/16 00:02:11;;;;;;;18.59;13.10;;;2.30;99.90;;;6.74;74.15;102930.89;1708893;74;24456;-80
2021/01/16 00:04:27;;;;;;;17.80;13.54;;;2.30;99.90;;;6.85;73.77;102927.23;1706188;74;24467;-80
2021/01/16 00:06:49;;;;;;;18.83;13.59;;;2.30;99.90;;;6.88;73.63;102928.71;1687874;74;24609;-79
2021/01/16 00:09:07;;;;;;;19.46;14.24;;;2.30;99.90;;;6.79;74.11;102929.48;1706639;74;24483;-79
2021/01/16 00:11:24;;;;;;;19.80;12.81;;;2.30;99.90;;;6.83;73.51;102925.86;1677340;76;24442;-79
2021/01/16 00:13:45;;;;;;;18.55;13.67;;;2.30;99.90;;;6.65;74.43;102925.19;1649156;77;24437;-81
2021/01/16 00:16:10;;;;;;;23.23;16.45;;;2.30;99.90;;;6.82;74.60;102927.97;1665808;76;24907;-80
2021/01/16 00:18:35;;;;;;;23.97;16.83;;;2.30;99.90;;;6.63;74.57;102924.19;1668052;76;24558;-81
2021/01/16 00:20:55;;;;;;;25.50;18.53;;;2.30;99.90;;;6.87;74.58;102923.05;1707622;74;24449;-79
2021/01/16 00:23:16;;;;;;;27.02;19.69;;;2.30;99.90;;;6.89;74.19;102924.91;1706547;74;24960;-78
2021/01/16 00:25:36;;;;;;;23.25;16.66;;;2.20;99.90;;;6.86;73.71;102923.44;1705839;74;24648;-80
2021/01/16 00:27:52;;;;;;;25.35;18.84;;;2.20;99.90;;;6.69;74.25;102916.78;1705356;74;24923;-77
2021/01/16 00:30:16;;;;;;;21.87;15.98;;;2.20;99.90;;;6.97;74.07;102906.83;1718723;74;24432;-78
2021/01/16 00:32:42;;;;;;;21.90;16.42;;;2.20;99.90;;;6.70;73.84;102907.81;1706157;74;24902;-79
2021/01/16 00:35:01;;;;;;;19.16;14.33;;;2.20;99.90;;;6.85;73.67;102910.02;1711494;74;24460;-79
2021/01/16 00:37:21;;;;;;;20.53;13.81;;;2.20;99.90;;;6.72;74.24;102904.05;1706547;74;25211;-78
2021/01/16 00:39:37;;;;;;;20.64;14.13;;;2.20;99.90;;;6.83;73.76;102903.84;1704644;74;24469;-79
2021/01/16 00:41:58;;;;;;;18.12;13.90;;;2.20;99.90;;;6.86;73.29;102902.73;1707912;74;24429;-79
2021/01/16 00:44:15;;;;;;;17.93;13.15;;;2.20;99.90;;;6.84;73.25;102901.77;1708913;74;24456;-81
2021/01/16 00:46:35;;;;;;;17.12;13.07;;;2.20;99.90;;;6.74;73.07;102895.95;1704329;74;24421;-77
2021/01/16 00:48:54;;;;;;;17.64;13.11;;;2.20;99.90;;;6.79;72.88;102903.58;1705696;74;24481;-79
2021/01/16 00:51:17;;;;;;;16.92;12.20;;;2.20;99.90;;;6.85;73.40;102902.64;1701490;74;24341;-79
2021/01/16 00:53:34;;;;;;;18.01;12.62;;;2.20;99.90;;;6.83;72.85;102894.78;1712181;74;24423;-79
2021/01/16 00:56:09;;;;;;;18.57;13.49;;;2.20;99.90;;;6.82;72.93;102905.05;1696519;74;24867;-79
2021/01/16 00:58:30;;;;;;;17.17;13.03;;;2.20;99.90;;;6.81;72.51;102904.58;1705253;74;24374;-79
2021/01/16 01:00:57;;;;;;;17.03;12.54;;;2.20;99.90;;;6.81;72.78;102908.03;1710178;74;24489;-81
2021/01/16 01:03:24;;;;;;;17.60;12.73;;;2.20;99.90;;;6.81;72.41;102905.88;1708079;74;24390;-79
2021/01/16 01:05:43;;;;;;;17.21;13.02;;;2.20;99.90;;;6.88;71.69;102898.54;1698401;74;24895;-79
2021/01/16 01:08:00;;;;;;;21.09;12.48;;;2.20;99.90;;;6.97;70.29;102906.83;1712020;74;24446;-78
2021/01/16 01:10:25;;;;;;;19.47;12.58;;;2.20;99.90;;;6.88;71.22;102899.83;1701074;74;24584;-80
2021/01/16 01:12:55;;;;;;;17.98;13.24;;;2.30;99.90;;;6.69;72.21;102900.86;1705788;74;24878;-79
2021/01/16 01:15:16;;;;;;;17.34;12.20;;;2.20;99.90;;;6.92;71.87;102899.23;1712267;74;24460;-80
2021/01/16 01:17:36;;;;;;;18.85;12.08;;;2.20;99.90;;;6.71;72.05;102894.09;1666509;76;24876;-79
2021/01/16 01:19:55;;;;;;;17.10;10.60;;;2.20;99.90;;;6.57;73.17;102889.80;1657104;76;24540;-79
2021/01/16 01:22:14;;;;;;;18.67;12.96;;;2.20;99.90;;;6.52;73.76;102882.55;1703117;74;24433;-78
2021/01/16 01:24:31;;;;;;;16.34;10.52;;;2.20;99.90;;;6.62;73.86;102883.20;1703970;74;24898;-79
2021/01/16 01:26:47;;;;;;;18.16;12.65;;;2.20;99.90;;;6.40;74.52;102880.15;1707288;74;24441;-79
2021/01/16 01:29:06;;;;;;;17.02;12.04;;;2.20;99.90;;;6.55;74.57;102875.86;1708513;74;24468;-80
2021/01/16 01:31:25;;;;;;;17.26;13.21;;;2.20;99.90;;;6.53;74.29;102883.06;1704637;74;24503;-80
2021/01/16 01:33:45;;;;;;;16.88;12.75;;;2.20;99.90;;;6.81;72.92;102885.16;1701596;74;24467;-80
2021/01/16 01:36:01;;;;;;;15.30;9.83;;;2.20;99.90;;;6.88;72.21;102884.30;1704163;74;24439;-80
2021/01/16 01:38:22;;;;;;;16.93;11.06;;;2.20;99.90;;;6.74;71.75;102886.49;1711329;74;24901;-80
2021/01/16 01:40:44;;;;;;;15.15;11.80;;;2.20;99.90;;;6.61;72.78;102886.99;1712407;74;24385;-79
2021/01/16 01:43:04;;;;;;;16.17;11.96;;;2.20;99.90;;;6.70;73.08;102882.34;1702028;74;24510;-78
2021/01/16 01:45:26;;;;;;;17.36;11.45;;;2.20;99.90;;;6.87;71.96;102868.28;1715271;74;24408;-79
2021/01/16 01:47:52;;;;;;;15.90;10.74;;;2.30;99.90;;;6.66;73.26;102871.30;1698988;74;24481;-79
2021/01/16 01:50:13;;;;;;;14.20;10.61;;;2.20;99.90;;;6.62;73.06;102859.91;1702743;74;24484;-80
2021/01/16 01:52:34;;;;;;;15.49;9.60;;;2.30;99.90;;;6.90;70.78;102857.20;1702199;74;24448;-79
2021/01/16 01:55:01;;;;;;;14.88;10.22;;;2.30;99.90;;;6.87;70.57;102859.61;1705762;74;24947;-80
2021/01/16 01:57:28;;;;;;;14.02;9.46;;;2.30;99.90;;;6.88;69.65;102861.00;1709355;74;24471;-78
2021/01/16 01:59:49;;;;;;;15.75;11.08;;;2.30;99.90;;;6.83;70.22;102851.20;1665828;76;24468;-80
2021/01/16 02:02:20;;;;;;;15.28;10.56;;;2.30;99.90;;;6.70;70.96;102852.58;1713556;74;24447;-80
2021/01/16 02:04:44;;;;;;;15.56;10.11;;;2.30;99.90;;;6.79;70.60;102853.09;1706421;74;24416;-79
2021/01/16 02:07:02;;;;;;;9.17;7.29;;;2.30;99.90;;;6.77;69.93;102845.25;1680122;76;24548;-79
2021/01/16 02:09:19;;;;;;;12.59;9.76;;;2.30;99.90;;;6.57;70.78;102843.60;1669435;76;24574;-78
2021/01/16 02:11:36;;;;;;;16.72;11.87;;;2.30;99.90;;;6.59;71.04;102842.00;1712257;74;25071;-80
2021/01/16 02:13:53;;;;;;;17.38;12.11;;;2.30;99.90;;;6.82;69.92;102842.91;1720770;74;24436;-79
2021/01/16 02:16:17;;;;;;;16.13;10.54;;;2.30;99.90;;;6.77;69.71;102838.77;1702865;74;24842;-79
2021/01/16 02:18:39;;;;;;;15.65;10.92;;;2.30;99.90;;;6.76;69.48;102844.77;1694594;74;24472;-77
2021/01/16 02:21:05;;;;;;;15.54;11.18;;;2.30;99.90;;;6.79;69.75;102848.83;1689738;74;24563;-77
2021/01/16 02:23:57;;;;;;;12.30;8.28;;;2.20;99.90;;;6.83;69.30;102849.47;1686250;75;24592;-80
2021/01/16 02:26:48;;;;;;;16.00;10.65;;;2.30;99.90;;;6.63;70.01;102838.38;1687531;75;24880;-81
2021/01/16 02:29:09;;;;;;;15.30;11.26;;;2.20;99.90;;;6.81;69.49;102831.66;1687653;75;24453;-78
2021/01/16 02:31:32;;;;;;;15.66;10.76;;;2.20;99.90;;;6.77;69.47;102836.19;1656729;77;24437;-79
2021/01/16 02:33:55;;;;;;;14.83;10.81;;;2.20;99.90;;;6.73;69.13;102835.53;1654223;77;24382;-81
2021/01/16 02:36:21;;;;;;;16.39;11.72;;;2.20;99.90;;;6.60;70.00;102839.89;1688356;75;24424;-81
2021/01/16 02:38:47;;;;;;;15.06;11.63;;;2.20;99.90;;;6.56;70.12;102834.94;1694416;75;24491;-80
2021/01/16 02:41:10;;;;;;;14.15;10.80;;;2.20;99.90;;;6.78;69.18;102829.32;1690599;75;24450;-79
2021/01/16 02:43:43;;;;;;;12.39;8.16;;;2.20;99.90;;;6.72;69.42;102823.37;1682747;75;24512;-79
2021/01/16 02:46:14;;;;;;;13.54;9.86;;;2.20;99.90;;;6.50;69.72;102822.03;1680979;75;24488;-80
2021/01/16 02:48:42;;;;;;;13.85;10.31;;;2.20;99.90;;;6.47;70.68;102819.27;1687786;75;24413;-79
2021/01/16 02:51:06;;;;;;;15.67;11.32;;;2.20;99.90;;;6.60;69.96;102818.80;1683749;75;24942;-79
2021/01/16 02:53:25;;;;;;;15.57;9.86;;;2.20;99.90;;;6.74;69.31;102822.16;1687128;75;24441;-80
2021/01/16 02:55:43;;;;;;;16.95;11.52;;;2.20;99.90;;;6.63;69.50;102824.15;1685467;75;24899;-80
2021/01/16 02:58:01;;;;;;;17.12;11.70;;;2.20;99.90;;;6.57;69.77;102817.33;1686012;75;24911;-80
2021/01/16 03:00:24;;;;;;;14.87;10.60;;;2.20;99.90;;;6.63;69.55;102823.24;1693968;75;24514;-78
2021/01/16 03:02:47;;;;;;;14.95;9.94;;;2.20;99.90;;;6.61;69.67;102823.16;1691901;75;24452;-78
2021/01/16 03:05:10;;;;;;;15.79;11.66;;;2.20;99.90;;;6.41;70.54;102816.34;1686886;75;24444;-79
2021/01/16 03:07:32;;;;;;;16.63;11.96;;;2.20;99.90;;;6.76;69.85;102816.29;1685613;75;24484;-80
2021/01/16 03:09:51;;;;;;;15.51;11.03;;;2.20;99.90;;;6.73;69.31;102805.77;1650915;77;24472;-80
2021/01/16 03:12:17;;;;;;;15.89;10.76;;;2.20;99.90;;;6.73;69.26;102813.53;1688216;75;24448;-80
2021/01/16 03:14:38;;;;;;;16.50;11.73;;;2.20;99.90;;;6.61;69.46;102811.52;1695142;75;24429;-79
2021/01/16 03:19:49;;;;;;;16.03;11.51;;;2.20;99.90;;;7.10;68.67;102813.48;1742041;72;25815;-83
2021/01/16 03:22:25;;;;;;;16.79;12.53;;;2.20;99.90;;;6.78;69.01;102816.37;1695662;75;24497;-79
2021/01/16 03:24:43;;;;;;;16.28;11.84;;;2.20;99.90;;;6.66;69.20;102811.77;1704941;75;24375;-79
2021/01/16 03:27:02;;;;;;;16.15;11.58;;;2.20;99.90;;;6.72;69.25;102814.73;1704451;75;25034;-80
2021/01/16 03:29:24;;;;;;;15.42;10.55;;;2.20;99.90;;;6.74;69.06;102811.81;1704848;75;24941;-80
2021/01/16 03:31:43;;;;;;;15.45;11.77;;;2.20;99.90;;;6.48;69.93;102809.01;1698671;74;24452;-80
2021/01/16 03:34:03;;;;;;;16.57;11.70;;;2.20;99.90;;;6.79;69.81;102808.70;1698232;75;24494;-79
2021/01/16 03:36:22;;;;;;;16.49;11.44;;;2.20;99.90;;;6.73;69.22;102808.74;1695241;75;24423;-79
2021/01/16 03:38:41;;;;;;;15.95;12.23;;;2.20;99.90;;;6.69;69.15;102801.59;1694555;75;24461;-80
2021/01/16 03:40:58;;;;;;;15.49;11.18;;;2.20;99.90;;;6.69;69.35;102793.43;1698120;74;24465;-79
2021/01/16 03:43:17;;;;;;;15.47;10.30;;;2.20;99.90;;;6.57;69.50;102793.13;1718860;75;24920;-80
2021/01/16 03:45:44;;;;;;;16.05;11.48;;;2.20;99.90;;;6.55;69.93;102791.75;1709874;74;24969;-78
2021/01/16 03:48:01;;;;;;;15.43;11.33;;;2.20;99.90;;;6.67;69.52;102782.52;1701373;75;24532;-79
2021/01/16 03:50:18;;;;;;;16.13;11.34;;;2.20;99.90;;;6.61;69.57;102784.34;1700353;75;24420;-80
2021/01/16 03:52:40;;;;;;;18.53;11.31;;;2.20;99.90;;;6.54;70.22;102784.81;1699435;75;24971;-79
2021/01/16 03:54:57;;;;;;;17.08;11.87;;;2.20;99.90;;;6.55;70.00;102776.23;1706606;75;24862;-79
2021/01/16 03:57:14;;;;;;;15.75;11.69;;;2.20;99.90;;;6.65;70.43;102768.20;1709588;75;24440;-78
2021/01/16 03:59:40;;;;;;;17.39;11.82;;;2.20;99.90;;;6.75;69.44;102770.90;1709084;75;24449;-78
2021/01/16 04:01:58;;;;;;;16.95;12.27;;;2.20;99.90;;;6.61;69.91;102764.92;1709391;75;24451;-78
2021/01/16 04:04:16;;;;;;;17.52;12.28;;;2.20;99.90;;;6.72;69.73;102757.79;1707720;75;24423;-79
2021/01/16 04:06:35;;;;;;;18.16;12.81;;;2.20;99.90;;;6.76;69.50;102756.75;1707468;75;24500;-78
2021/01/16 04:08:55;;;;;;;17.68;13.40;;;2.20;99.90;;;6.77;69.40;102755.03;1699000;75;24495;-78
2021/01/16 04:11:14;;;;;;;15.95;10.92;;;2.20;99.90;;;6.80;68.79;102747.43;1682073;75;24899;-79
2021/01/16 04:13:35;;;;;;;16.19;12.30;;;2.20;99.90;;;6.59;68.98;102738.05;1691307;75;24881;-79
2021/01/16 04:15:55;;;;;;;15.57;10.51;;;2.20;99.90;;;6.70;69.35;102743.43;1709242;75;24473;-79
2021/01/16 04:18:14;;;;;;;16.90;12.36;;;2.10;99.90;;;6.45;70.29;102740.69;1701561;75;24541;-79
2021/01/16 04:20:37;;;;;;;18.13;12.34;;;2.20;99.90;;;6.37;71.52;102732.89;1657603;75;24879;-80
2021/01/16 04:22:54;;;;;;;16.28;11.91;;;2.20;99.90;;;6.74;70.55;102736.34;1669713;76;24474;-81
2021/01/16 04:25:16;;;;;;;15.30;10.95;;;2.20;99.90;;;6.76;69.01;102737.33;1665018;76;24461;-78
2021/01/16 04:27:35;;;;;;;19.79;10.24;;;2.20;99.90;;;6.82;69.30;102739.35;1678506;76;24503;-78
2021/01/16 04:29:55;;;;;;;15.77;12.45;;;2.20;99.90;;;6.72;68.74;102737.95;1675576;75;24534;-80
2021/01/16 04:32:12;;;;;;;17.80;13.06;;;2.20;99.90;;;6.84;68.88;102733.87;1662822;76;24480;-79
2021/01/16 04:34:29;;;;;;;18.31;12.60;;;2.20;99.90;;;6.89;68.33;102729.84;1667189;76;24449;-80
2021/01/16 04:36:47;;;;;;;16.08;11.99;;;2.20;99.90;;;6.93;68.31;102733.06;1673518;76;24420;-79
2021/01/16 04:39:06;;;;;;;17.70;12.19;;;2.20;99.90;;;7.07;67.62;102728.23;1667890;76;24472;-78
2021/01/16 04:41:28;;;;;;;16.52;12.10;;;2.20;99.90;;;6.81;68.03;102729.81;1666377;76;24441;-79
2021/01/16 04:43:48;;;;;;;18.00;11.70;;;2.20;99.90;;;6.83;68.92;102729.08;1653453;76;24497;-79
2021/01/16 04:46:09;;;;;;;17.29;12.78;;;2.20;99.90;;;6.78;68.70;102725.34;1660291;76;24526;-77
2021/01/16 04:48:29;;;;;;;17.35;12.41;;;2.30;99.90;;;6.87;68.88;102723.67;1664544;75;24489;-78
2021/01/16 04:50:50;;;;;;;17.60;11.75;;;2.20;99.90;;;6.92;68.48;102717.95;1672893;76;24860;-79
2021/01/16 04:53:12;;;;;;;15.90;11.36;;;2.20;99.90;;;6.76;68.34;102718.30;1670864;76;24447;-80
2021/01/16 04:55:38;;;;;;;16.74;11.58;;;2.20;99.90;;;6.82;68.32;102722.13;1666189;76;24473;-80
2021/01/16 04:57:55;;;;;;;17.53;11.23;;;2.20;99.90;;;6.77;68.40;102720.98;1673680;76;24530;-79
2021/01/16 05:00:19;;;;;;;17.16;11.86;;;2.20;99.90;;;6.68;69.30;102723.06;1671706;76;24436;-80
2021/01/16 05:02:39;;;;;;;15.83;11.90;;;2.20;99.90;;;6.78;68.68;102712.39;1670952;76;24447;-78
2021/01/16 05:05:06;;;;;;;16.75;11.37;;;2.20;99.90;;;6.64;69.81;102713.33;1665365;76;24412;-79
2021/01/16 05:07:29;;;;;;;16.54;10.94;;;2.20;99.90;;;6.63;69.34;102709.36;1664146;76;24439;-81
2021/01/16 05:09:51;;;;;;;16.24;12.36;;;2.20;99.90;;;6.49;70.14;102701.23;1659354;76;24432;-80
2021/01/16 05:12:27;;;;;;;16.37;11.42;;;2.20;99.90;;;6.85;69.63;102700.69;1665540;76;24943;-80
2021/01/16 05:14:53;;;;;;;16.50;11.29;;;2.20;99.90;;;6.67;69.22;102693.22;1662868;76;24516;-78
2021/01/16 05:17:12;;;;;;;17.62;12.39;;;2.10;99.90;;;6.71;69.34;102684.41;1660806;76;24469;-81
2021/01/16 05:19:33;;;;;;;17.88;12.64;;;2.20;99.90;;;6.71;69.05;102686.99;1665388;75;25000;-79
2021/01/16 05:21:50;;;;;;;21.34;15.63;;;2.20;99.90;;;6.77;69.03;102686.03;1683083;75;24445;-80
2021/01/16 05:24:13;;;;;;;24.26;18.38;;;2.10;99.90;;;6.82;68.87;102681.09;1681132;75;24902;-78
2021/01/16 05:26:35;;;;;;;22.68;17.28;;;2.20;99.90;;;6.89;68.64;102675.03;1684188;75;24878;-79
2021/01/16 05:28:54;;;;;;;20.73;14.58;;;2.20;99.90;;;6.91;68.44;102677.31;1690831;75;24493;-79
2021/01/16 05:31:13;;;;;;;17.66;12.82;;;2.20;99.90;;;6.66;68.96;102677.17;1686462;75;24886;-78
2021/01/16 05:33:35;;;;;;;19.13;13.19;;;2.20;99.90;;;6.63;69.85;102671.44;1684417;75;24445;-81
2021/01/16 05:35:56;;;;;;;18.02;12.35;;;2.20;99.90;;;6.81;68.99;102672.43;1684304;75;24448;-79
2021/01/16 05:38:31;;;;;;;18.45;13.14;;;2.20;99.90;;;6.61;69.55;102663.98;1688702;75;24461;-81
2021/01/16 05:40:50;;;;;;;19.50;12.89;;;2.20;99.90;;;6.72;69.56;102665.47;1685804;75;24565;-78
2021/01/16 05:43:08;;;;;;;16.99;13.17;;;2.10;99.90;;;6.70;69.50;102663.61;1694114;75;24440;-80
2021/01/16 05:45:29;;;;;;;19.70;12.44;;;2.10;99.90;;;6.71;69.85;102662.80;1685522;75;24890;-80
2021/01/16 05:47:48;;;;;;;16.11;12.35;;;2.10;99.90;;;6.56;69.80;102658.08;1683862;75;24510;-78
2021/01/16 05:50:19;;;;;;;17.44;11.35;;;2.10;99.90;;;6.64;70.89;102664.15;1694441;75;24862;-79
2021/01/16 05:52:39;;;;;;;17.12;12.76;;;2.10;99.90;;;6.46;70.34;102657.97;1695076;75;24424;-78
2021/01/16 05:55:04;;;;;;;19.00;12.93;;;2.10;99.90;;;6.61;70.75;102660.10;1689431;75;24827;-79
2021/01/16 05:57:23;;;;;;;17.90;13.84;;;2.10;99.90;;;6.60;70.61;102658.72;1687384;75;24479;-78
2021/01/16 05:59:47;;;;;;;16.98;13.46;;;2.10;99.90;;;6.50;70.52;102656.42;1683726;75;25789;-80
2021/01/16 06:02:09;;;;;;;14.90;10.81;;;2.10;99.90;;;6.58;71.04;102653.47;1690089;75;24996;-79
2021/01/16 06:04:27;;;;;;;17.40;13.17;;;2.10;99.90;;;6.58;70.29;102656.05;1690264;75;24928;-79
2021/01/16 06:06:47;;;;;;;16.66;11.57;;;2.10;99.90;;;6.56;71.01;102648.60;1685134;75;24480;-78
2021/01/16 06:09:05;;;;;;;19.18;12.48;;;2.10;99.90;;;6.60;70.56;102645.39;1688508;75;24452;-80
2021/01/16 06:11:24;;;;;;;18.19;12.51;;;2.10;99.90;;;6.72;69.97;102648.64;1691207;75;24492;-80
2021/01/16 06:13:44;;;;;;;18.75;14.22;;;2.10;99.90;;;6.62;69.74;102643.79;1694585;75;24509;-79
2021/01/16 06:16:05;;;;;;;17.41;12.45;;;2.10;99.90;;;6.69;69.80;102640.71;1693750;75;24453;-79
2021/01/16 06:18:33;;;;;;;18.94;13.65;;;2.10;99.90;;;6.54;70.76;102642.86;1691786;75;24633;-79
2021/01/16 06:20:55;;;;;;;17.38;12.57;;;2.10;99.90;;;6.57;70.64;102641.34;1693471;74;24510;-80
2021/01/16 06:23:20;;;;;;;16.69;11.91;;;2.10;99.90;;;6.37;71.56;102640.62;1709795;74;25019;-80
2021/01/16 06:25:41;;;;;;;18.99;12.87;;;2.10;99.90;;;6.72;71.01;102639.58;1706986;74;24494;-81
2021/01/16 06:28:04;;;;;;;17.59;12.51;;;2.10;99.90;;;6.66;70.31;102640.94;1705331;74;24421;-80
2021/01/16 06:30:34;;;;;;;17.44;12.74;;;2.10;99.90;;;6.75;70.37;102634.99;1705936;74;24502;-79
2021/01/16 06:32:56;;;;;;;17.50;12.28;;;2.10;99.90;;;6.63;70.20;102635.20;1709112;74;24436;-81
2021/01/16 06:35:18;;;;;;;18.27;12.95;;;2.10;99.90;;;6.58;70.47;102628.88;1715808;74;24448;-80
2021/01/16 06:37:46;;;;;;;17.81;13.25;;;2.10;99.90;;;6.70;70.38;102630.83;1713351;74;24427;-79
2021/01/16 06:40:09;;;;;;;17.73;12.52;;;2.10;99.90;;;6.86;69.72;102628.70;1715984;74;24885;-81
2021/01/16 06:42:29;;;;;;;16.77;11.77;;;2.10;99.90;;;6.84;69.36;102626.02;1687680;74;24483;-77
2021/01/16 06:44:46;;;;;;;16.55;12.51;;;2.10;99.90;;;6.49;69.65;102612.86;1708375;74;24568;-78
2021/01/16 06:47:05;;;;;;;20.58;12.65;;;2.10;99.90;;;6.39;71.67;102617.03;1713847;73;24424;-80
2021/01/16 06:49:34;;;;;;;19.67;13.50;;;2.10;99.90;;;6.44;71.24;102620.77;1712927;74;24434;-77
2021/01/16 06:51:55;;;;;;;17.96;12.78;;;2.10;99.90;;;6.55;71.12;102613.19;1712157;74;24427;-79
2021/01/16 06:54:22;;;;;;;18.97;12.79;;;2.10;99.90;;;6.59;71.07;102611.66;1705834;73;24439;-80
2021/01/16 06:56:41;;;;;;;18.41;12.63;;;2.00;99.90;;;6.64;70.96;102614.11;1711739;74;24940;-78
2021/01/16 06:59:03;;;;;;;18.23;12.34;;;2.00;99.90;;;6.54;70.75;102609.23;1718654;73;24412;-80
2021/01/16 07:01:22;;;;;;;16.43;12.97;;;2.00;99.90;;;6.50;70.78;102614.62;1702911;74;24531;-81
2021/01/16 07:03:49;;;;;;;17.78;13.17;;;2.10;99.90;;;6.63;70.44;102608.03;1714480;74;24490;-80
2021/01/16 07:06:07;;;;;;;17.82;12.44;;;2.00;99.90;;;6.51;71.03;102609.96;1707013;74;24445;-79
2021/01/16 07:08:29;;;;;;;19.23;12.80;;;2.00;99.90;;;6.39;71.31;102613.54;1700358;74;24441;-80
2021/01/16 07:10:48;;;;;;;15.59;12.14;;;2.00;99.90;;;6.46;70.97;102619.16;1710470;74;24993;-80
2021/01/16 07:13:08;;;;;;;17.70;11.61;;;2.00;99.90;;;6.43;70.82;102621.98;1706833;74;24496;-79
2021/01/16 07:15:29;;;;;;;17.57;13.41;;;2.00;99.90;;;6.26;71.18;102614.98;1702342;74;24440;-79
2021/01/16 07:17:48;;;;;;;18.51;12.67;;;2.00;99.90;;;6.37;71.84;102608.28;1704870;74;24424;-80
2021/01/16 07:20:09;;;;;;;17.74;14.00;;;2.00;99.90;;;6.37;71.76;102606.98;1715967;74;24491;-80
2021/01/16 07:22:32;;;;;;;18.73;13.95;;;2.00;99.90;;;6.61;71.12;102601.00;1689146;74;24898;-80
2021/01/16 07:24:52;;;;;;;13.25;8.32;;;2.00;99.90;;;6.52;70.80;102602.67;1684331;74;24946;-80
2021/01/16 07:27:15;;;;;;;19.37;13.39;;;2.00;99.90;;;6.06;72.12;102597.94;1691113;74;24458;-79
2021/01/16 07:29:34;;;;;;;16.65;12.69;;;2.00;99.90;;;6.35;71.76;102599.57;1690949;75;24441;-81
2021/01/16 07:31:56;;;;;;;14.86;10.38;;;2.00;99.90;;;6.35;72.04;102593.11;1684017;75;24481;-79
2021/01/16 07:34:15;;;;;;;20.05;13.57;;;2.00;99.90;;;6.38;71.38;102597.15;1693160;75;24436;-80
2021/01/16 07:36:34;;;;;;;18.90;13.84;;;2.00;99.90;;;6.47;71.12;102600.23;1688420;75;24434;-82
2021/01/16 07:38:53;;;;;;;20.37;13.44;;;2.00;99.90;;;6.48;70.94;102595.95;1686056;74;24524;-79
2021/01/16 07:41:15;;;;;;;18.02;12.09;;;2.00;99.90;;;6.23;72.17;102596.28;1685878;75;24669;-79
2021/01/16 07:43:50;;;;;;;19.85;13.69;;;2.00;99.90;;;6.09;71.93;102597.20;1683632;74;24485;-80
2021/01/16 07:46:13;;;;;;;16.39;10.91;;;2.00;99.90;;;6.25;71.73;102594.68;1697658;75;24510;-79
2021/01/16 07:48:34;;;;;;;18.82;13.30;;;2.00;99.90;;;6.03;72.38;102600.36;1699300;75;24533;-80
2021/01/16 07:50:53;;;;;;;19.53;12.06;;;2.00;99.90;;;6.21;72.41;102591.84;1690423;75;24936;-80
2021/01/16 07:53:12;;;;;;;19.37;13.42;;;2.00;99.90;;;6.20;71.99;102589.65;1700121;75;24498;-80
2021/01/16 07:58:57;;;;;;;23.82;14.87;;;2.00;99.90;;;6.63;70.38;102578.27;1733992;72;25195;-79
2021/01/16 08:04:21;;;;;;;17.39;12.29;;;2.00;99.90;;;6.40;71.63;102575.24;1738453;72;25780;-79
2021/01/16 08:06:50;;;;;;;18.44;13.97;;;2.00;99.90;;;6.35;72.35;102577.97;1725427;73;24545;-79
2021/01/16 08:09:10;;;;;;;19.38;13.19;;;2.00;99.90;;;6.38;71.62;102571.28;1718478;73;24539;-78
2021/01/16 08:11:33;;;;;;;19.83;14.33;;;2.00;99.90;;;6.38;71.67;102572.57;1718636;73;24440;-79
2021/01/16 08:13:54;;;;;;;19.47;13.31;;;2.10;99.90;;;6.38;71.96;102571.67;1724064;73;24954;-79
2021/01/16 08:16:14;;;;;;;14.88;10.34;;;2.10;99.90;;;6.42;71.08;102565.45;1717753;73;24440;-80
2021/01/16 08:18:36;;;;;;;17.93;14.25;;;2.10;99.90;;;6.33;71.34;102570.13;1718666;73;24924;-80
2021/01/16 08:20:54;;;;;;;23.01;14.39;;;2.10;99.90;;;6.41;71.79;102569.25;1720435;73;24448;-80
2021/01/16 08:23:22;;;;;;;14.86;10.26;;;2.10;99.90;;;6.58;70.81;102568.06;1718205;73;24464;-80
2021/01/16 08:25:39;;;;;;;19.53;14.09;;;2.20;99.90;;;6.27;71.52;102572.78;1723279;73;24908;-79
2021/01/16 08:27:58;;;;;;;19.07;12.55;;;2.20;99.90;;;6.39;72.19;102566.58;1725464;73;24962;-79
2021/01/16 08:30:29;;;;;;;19.50;14.79;;;2.10;99.90;;;6.26;72.21;102568.42;1718480;74;24467;-80
2021/01/16 08:33:03;;;;;;;15.23;9.90;;;2.20;99.90;;;6.26;73.56;102562.83;1719911;73;24437;-80
2021/01/16 08:35:27;;;;;;;14.93;10.60;;;2.20;99.90;;;6.20;72.60;102560.33;1721127;73;24488;-78
2021/01/16 08:37:47;;;;;;;11.59;7.78;;;2.20;99.90;;;6.06;73.75;102555.28;1717760;73;24437;-80
2021/01/16 08:40:07;;;;;;;15.08;11.76;;;2.20;99.90;;;6.13;73.17;102550.91;1722375;73;24447;-80
2021/01/16 08:42:28;;;;;;;19.02;12.79;;;2.20;99.90;;;6.31;72.57;102553.62;1722403;73;24502;-80
2021/01/16 08:45:11;;;;;;;17.35;13.26;;;2.20;99.90;;;6.41;71.36;102555.02;1724614;73;24436;-80
2021/01/16 08:47:28;;;;;;;19.27;13.96;;;2.20;99.90;;;6.50;70.83;102551.23;1719746;73;24457;-80
2021/01/16 08:49:45;;;;;;;17.56;13.04;;;2.30;99.90;;;6.57;69.77;102543.39;1722712;73;24935;-80
2021/01/16 08:52:01;;;;;;;17.55;13.76;;;2.30;99.90;;;6.56;71.36;102542.50;1718572;73;24413;-80
2021/01/16 08:54:21;;;;;;;19.61;13.99;;;2.30;99.90;;;6.58;71.24;102542.19;1724519;73;24458;-81
2021/01/16 08:56:40;;;;;;;18.75;14.34;;;2.40;99.90;;;6.50;71.59;102542.56;1695337;75;24508;-80
2021/01/16 08:58:57;;;;;;;16.60;12.24;;;2.40;99.90;;;6.60;70.77;102535.80;1718427;73;24978;-81
2021/01/16 09:01:16;;;;;;;20.50;15.01;;;2.40;99.90;;;6.30;72.26;102541.51;1725053;73;24486;-82
2021/01/16 09:03:35;;;;;;;13.40;8.77;;;2.40;99.90;;;6.54;72.09;102533.78;1721653;73;24511;-80
2021/01/16 09:06:02;;;;;;;20.17;15.02;;;2.50;99.90;;;6.46;71.49;102535.07;1727935;73;24486;-80
2021/01/16 09:08:24;;;;;;;19.47;14.85;;;2.50;99.90;;;6.58;70.81;102537.41;1737634;73;24475;-81
2021/01/16 09:10:40;;;;;;;19.73;14.60;;;2.50;99.90;;;6.83;70.97;102529.72;1727631;73;24452;-79
2021/01/16 09:13:00;;;;;;;19.32;13.38;;;2.50;99.90;;;6.83;70.12;102532.74;1725464;74;24476;-78
2021/01/16 09:15:24;;;;;;;19.16;14.53;;;2.50;99.90;;;6.50;71.99;102528.34;1730245;73;24467;-80
2021/01/16 09:17:45;;;;;;;16.70;11.74;;;2.60;99.90;;;6.62;70.90;102533.80;1695789;75;24487;-81
2021/01/16 09:20:05;;;;;;;19.90;14.55;;;2.50;99.90;;;6.55;71.05;102527.79;1691202;75;24491;-79
2021/01/16 09:22:27;;;;;;;19.68;14.79;;;2.60;99.90;;;6.82;70.00;102524.08;1685189;76;24597;-80
2021/01/16 09:24:47;;;;;;;18.24;14.66;;;2.60;99.90;;;6.69;69.53;102519.05;1682446;76;24588;-80
2021/01/16 09:27:18;;;;;;;20.30;14.25;;;2.60;99.90;;;6.68;69.84;102524.16;1642979;77;24483;-81
2021/01/16 09:29:36;;;;;;;20.16;15.68;;;2.60;99.90;;;6.72;69.52;102524.39;1698611;74;24446;-82
2021/01/16 09:31:55;;;;;;;20.25;14.38;;;2.60;99.90;;;6.71;68.25;102526.50;1731445;73;24453;-81
2021/01/16 09:34:17;;;;;;;19.56;15.05;;;2.70;99.90;;;6.80;68.74;102526.98;1728383;73;24526;-80
2021/01/16 09:36:55;;;;;;;19.13;13.34;;;2.60;99.90;;;6.81;68.48;102526.16;1726701;73;25077;-81
2021/01/16 09:39:22;;;;;;;16.75;11.67;;;2.70;99.90;;;6.78;69.58;102522.11;1728521;73;24482;-80
2021/01/16 09:41:42;;;;;;;18.52;13.10;;;2.60;99.90;;;6.76;68.99;102530.63;1731447;73;24423;-80
2021/01/16 09:44:02;;;;;;;20.13;14.67;;;2.70;99.90;;;6.78;68.56;102523.84;1725188;73;24457;-81
2021/01/16 09:49:20;;;;;;;17.73;12.33;;;2.70;99.90;;;7.32;66.62;102517.18;1748763;72;25333;-81
2021/01/16 09:51:38;;;;;;;15.88;9.14;;;2.70;99.90;;;6.79;68.48;102520.42;1718410;73;24511;-82
2021/01/16 09:54:12;;;;;;;17.41;10.80;;;2.70;99.90;;;6.64;69.21;102522.23;1718328;73;24425;-82
2021/01/16 09:56:51;;;;;;;17.68;12.56;;;2.70;99.90;;;6.65;69.34;102516.23;1717434;73;24468;-80
2021/01/16 09:59:10;;;;;;;20.11;14.09;;;2.70;99.90;;;6.84;68.21;102513.80;1717413;73;24457;-80
2021/01/16 10:01:32;;;;;;;17.81;11.84;;;2.80;99.90;;;6.97;67.71;102518.37;1720320;73;24496;-81
2021/01/16 10:03:50;;;;;;;18.41;13.80;;;2.80;99.90;;;6.79;68.46;102520.03;1722912;73;24531;-80